createdAt,value
2022-09-25T00:00:47.346Z,100310.53
2022-09-25T00:03:15.731Z,100312.34
2022-09-25T00:05:44.077Z,100315.88
2022-09-25T00:08:10.575Z,100317.63
2022-09-25T00:10:49.428Z,100314.09
2022-09-25T00:13:17.906Z,100312.31
2022-09-25T00:15:53.287Z,100306.09
2022-09-25T00:18:39.524Z,100301.66
2022-09-25T00:21:07.008Z,100311.41
2022-09-25T00:23:34.458Z,100307.91
2022-09-25T00:26:03.126Z,100303.47
2022-09-25T00:28:29.621Z,100308.78
2022-09-25T00:30:56.951Z,100306.97
2022-09-25T00:33:23.998Z,100299.91
2022-09-25T00:35:50.742Z,100294.56
2022-09-25T00:38:17.281Z,100296.31
2022-09-25T00:40:43.911Z,100294.56
2022-09-25T00:43:37.243Z,100289.25
2022-09-25T00:46:09.161Z,100295.44
2022-09-25T00:48:37.413Z,100293.69
2022-09-25T00:51:05.222Z,100295.44
2022-09-25T00:53:37.351Z,100295.44
2022-09-25T00:56:05.191Z,100287.47
2022-09-25T00:58:34.538Z,100289.22
2022-09-25T01:01:01.210Z,100292.75
2022-09-25T01:03:28.758Z,100288.34
2022-09-25T01:06:00.326Z,100291.00
2022-09-25T01:08:30.519Z,100280.38
2022-09-25T01:10:57.507Z,100290.13
2022-09-25T01:13:24.234Z,100294.56
2022-09-25T01:15:59.832Z,100291.03
2022-09-25T01:18:47.689Z,100291.03
2022-09-25T01:21:23.486Z,100282.19
2022-09-25T01:24:25.833Z,100297.22
2022-09-25T01:27:30.112Z,100282.19
2022-09-25T01:30:12.277Z,100280.41
2022-09-25T01:32:55.901Z,100279.50
2022-09-25T01:35:42.891Z,100283.06
2022-09-25T01:38:40.271Z,100283.97
2022-09-25T01:41:23.623Z,100275.09
2022-09-25T01:43:57.504Z,100283.97
2022-09-25T01:46:29.018Z,100284.88
2022-09-25T01:49:33.402Z,100284.88
2022-09-25T01:52:02.525Z,100284.91
2022-09-25T01:54:41.704Z,100280.47
2022-09-25T01:57:12.495Z,100281.34
2022-09-25T01:59:56.685Z,100274.25
2022-09-25T02:02:31.487Z,100273.38
2022-09-25T02:05:31.420Z,100268.94
2022-09-25T02:08:08.684Z,100269.78
2022-09-25T02:10:45.051Z,100271.59
2022-09-25T02:13:15.540Z,100269.78
2022-09-25T02:16:05.464Z,100274.22
2022-09-25T02:18:50.828Z,100268.03
2022-09-25T02:21:40.826Z,100273.38
2022-09-25T02:24:19.762Z,100273.38
2022-09-25T02:26:47.448Z,100278.72
2022-09-25T02:29:15.438Z,100277.81
2022-09-25T02:31:55.040Z,100273.38
2022-09-25T02:34:23.108Z,100273.38
2022-09-25T02:36:50.052Z,100263.63
2022-09-25T02:39:20.519Z,100260.09
2022-09-25T02:42:14.786Z,100271.66
2022-09-25T02:44:50.735Z,100276.94
2022-09-25T02:47:42.425Z,100264.53
2022-09-25T02:50:17.315Z,100271.66
2022-09-25T02:52:59.018Z,100271.66
2022-09-25T02:55:48.265Z,100272.53
2022-09-25T02:58:27.396Z,100271.69
2022-09-25T03:00:56.699Z,100269.91
2022-09-25T03:03:25.569Z,100275.25
2022-09-25T03:05:56.514Z,100275.25
2022-09-25T03:08:40.810Z,100267.25
2022-09-25T03:11:13.438Z,100261.97
2022-09-25T03:13:41.027Z,100261.09
2022-09-25T03:16:28.148Z,100264.66
2022-09-25T03:18:54.731Z,100264.66
2022-09-25T03:21:21.180Z,100266.41
2022-09-25T03:23:47.742Z,100260.22
2022-09-25T03:26:14.276Z,100258.44
2022-09-25T03:28:40.801Z,100262.88
2022-09-25T03:31:10.528Z,100259.31
2022-09-25T03:33:39.456Z,100258.41
2022-09-25T03:36:18.393Z,100259.31
2022-09-25T03:38:46.356Z,100262.84
2022-09-25T03:41:14.319Z,100261.94
2022-09-25T03:43:43.398Z,100260.19
2022-09-25T03:46:12.881Z,100268.16
2022-09-25T03:48:40.454Z,100261.09
2022-09-25T03:51:08.072Z,100264.63
2022-09-25T03:53:34.715Z,100255.78
2022-09-25T03:56:08.513Z,100255.81
2022-09-25T03:58:35.459Z,100259.31
2022-09-25T04:01:02.807Z,100255.81
2022-09-25T04:03:31.452Z,100261.13
2022-09-25T04:06:00.659Z,100252.28
2022-09-25T04:08:28.314Z,100247.91
2022-09-25T04:11:01.965Z,100247.03
2022-09-25T04:13:36.136Z,100252.34
2022-09-25T04:16:05.403Z,100252.38
2022-09-25T04:18:32.128Z,100245.28
2022-09-25T04:21:03.424Z,100245.31
2022-09-25T04:23:30.470Z,100253.28
2022-09-25T04:25:57.238Z,100247.09
2022-09-25T04:28:24.843Z,100249.75
2022-09-25T04:30:51.741Z,100255.06
2022-09-25T04:33:37.247Z,100245.31
2022-09-25T04:36:04.978Z,100245.34
2022-09-25T04:38:32.475Z,100257.72
2022-09-25T04:41:02.805Z,100239.13
2022-09-25T04:43:30.259Z,100245.34
2022-09-25T04:46:01.838Z,100246.22
2022-09-25T04:48:29.068Z,100246.25
2022-09-25T04:50:55.960Z,100248.91
2022-09-25T04:53:22.989Z,100248.91
2022-09-25T04:55:49.540Z,100253.31
2022-09-25T04:58:16.030Z,100246.25
2022-09-25T05:00:42.704Z,100252.44
2022-09-25T05:03:09.365Z,100256.81
2022-09-25T05:05:36.006Z,100263.03
2022-09-25T05:08:03.586Z,100255.94
2022-09-25T05:10:32.475Z,100253.28
2022-09-25T05:13:01.123Z,100256.84
2022-09-25T05:15:30.168Z,100256.84
2022-09-25T05:18:12.461Z,100258.59
2022-09-25T05:20:39.089Z,100251.53
2022-09-25T05:23:05.564Z,100250.63
2022-09-25T05:25:32.480Z,100248.88
2022-09-25T05:28:01.185Z,100252.41
2022-09-25T05:30:33.560Z,100251.53
2022-09-25T05:33:00.554Z,100247.09
2022-09-25T05:35:29.652Z,100251.53
2022-09-25T05:37:56.359Z,100251.53
2022-09-25T05:40:24.292Z,100245.34
2022-09-25T05:42:52.023Z,100255.94
2022-09-25T05:45:20.067Z,100246.22
2022-09-25T05:47:47.256Z,100254.19
2022-09-25T05:50:16.532Z,100249.78
2022-09-25T05:52:44.431Z,100255.09
2022-09-25T05:55:11.064Z,100261.25
2022-09-25T05:57:38.129Z,100253.28
2022-09-25T06:00:09.178Z,100258.59
2022-09-25T06:02:38.550Z,100251.53
2022-09-25T06:05:05.214Z,100254.19
2022-09-25T06:07:31.739Z,100252.41
2022-09-25T06:09:58.226Z,100249.78
2022-09-25T06:12:24.877Z,100253.31
2022-09-25T06:14:52.439Z,100246.25
2022-09-25T06:17:19.550Z,100248.91
2022-09-25T06:19:46.574Z,100236.50
2022-09-25T06:22:13.412Z,100236.50
2022-09-25T06:24:40.039Z,100240.91
2022-09-25T06:27:07.360Z,100239.16
2022-09-25T06:29:33.801Z,100233.84
2022-09-25T06:32:00.318Z,100237.41
2022-09-25T06:34:28.261Z,100243.59
2022-09-25T06:36:54.774Z,100243.59
2022-09-25T06:39:21.262Z,100240.03
2022-09-25T06:41:47.770Z,100246.25
2022-09-25T06:44:22.466Z,100244.47
2022-09-25T06:46:54.780Z,100248.91
2022-09-25T06:49:21.940Z,100253.31
2022-09-25T06:51:50.986Z,100259.53
2022-09-25T06:54:17.867Z,100251.56
2022-09-25T06:56:47.981Z,100257.75
2022-09-25T06:59:14.753Z,100258.63
2022-09-25T07:01:41.252Z,100256.81
2022-09-25T07:04:07.900Z,100260.38
2022-09-25T07:06:37.337Z,100258.63
2022-09-25T07:09:03.907Z,100257.75
2022-09-25T07:11:31.408Z,100256.88
2022-09-25T07:13:58.652Z,100263.94
2022-09-25T07:16:28.051Z,100251.56
2022-09-25T07:18:56.204Z,100264.81
2022-09-25T07:21:24.571Z,100260.38
2022-09-25T07:23:52.245Z,100261.28
2022-09-25T07:26:24.585Z,100254.19
2022-09-25T07:28:57.185Z,100253.28
2022-09-25T07:31:26.779Z,100257.72
2022-09-25T07:33:53.823Z,100261.25
2022-09-25T07:36:21.175Z,100258.59
2022-09-25T07:38:52.620Z,100261.25
2022-09-25T07:41:22.616Z,100260.38
2022-09-25T07:46:44.680Z,100270.09
2022-09-25T07:49:11.850Z,100266.56
2022-09-25T07:51:38.414Z,100269.22
2022-09-25T07:54:05.094Z,100273.66
2022-09-25T07:56:34.443Z,100276.28
2022-09-25T07:59:01.191Z,100279.84
2022-09-25T08:01:27.820Z,100271.88
2022-09-25T08:03:54.637Z,100274.50
2022-09-25T08:06:21.186Z,100280.69
2022-09-25T08:08:47.749Z,100278.03
2022-09-25T08:11:17.095Z,100276.25
2022-09-25T08:13:44.520Z,100281.56
2022-09-25T08:16:14.128Z,100275.31
2022-09-25T08:18:42.288Z,100281.53
2022-09-25T08:21:09.839Z,100283.31
2022-09-25T08:23:36.561Z,100285.03
2022-09-25T08:26:03.217Z,100280.59
2022-09-25T08:28:29.908Z,100271.72
2022-09-25T08:30:59.762Z,100277.88
2022-09-25T08:33:26.456Z,100276.94
2022-09-25T08:36:04.197Z,100273.31
2022-09-25T08:38:34.269Z,100273.25
2022-09-25T08:41:10.405Z,100274.97
2022-09-25T08:43:44.704Z,100277.69
2022-09-25T08:46:53.546Z,100279.50
2022-09-25T08:49:26.292Z,100282.19
2022-09-25T08:51:57.660Z,100282.06
2022-09-25T08:54:26.404Z,100278.47
2022-09-25T08:56:56.990Z,100280.25
2022-09-25T08:59:30.905Z,100283.81
2022-09-25T09:02:03.871Z,100282.13
2022-09-25T09:04:36.933Z,100291.00
2022-09-25T09:07:27.642Z,100295.47
2022-09-25T09:10:08.806Z,100298.13
2022-09-25T09:12:48.368Z,100289.28
2022-09-25T09:15:54.489Z,100302.56
2022-09-25T09:18:26.959Z,100294.59
2022-09-25T09:21:02.056Z,100287.56
2022-09-25T09:23:40.622Z,100284.88
2022-09-25T09:26:27.931Z,100297.28
2022-09-25T09:29:00.273Z,100295.53
2022-09-25T09:31:53.941Z,100299.97
2022-09-25T09:34:53.699Z,100297.28
2022-09-25T09:37:39.046Z,100291.09
2022-09-25T09:40:24.140Z,100291.03
2022-09-25T09:43:05.603Z,100283.91
2022-09-25T09:45:53.938Z,100291.00
2022-09-25T09:48:36.772Z,100291.00
2022-09-25T09:51:10.790Z,100283.91
2022-09-25T09:53:50.707Z,100282.13
2022-09-25T09:56:25.766Z,100283.06
2022-09-25T09:59:02.240Z,100287.47
2022-09-25T10:01:42.568Z,100277.66
2022-09-25T10:04:35.628Z,100274.94
2022-09-25T10:07:11.842Z,100279.34
2022-09-25T10:09:38.414Z,100282.03
2022-09-25T10:12:21.521Z,100282.91
2022-09-25T10:14:48.476Z,100279.38
2022-09-25T10:17:16.231Z,100271.25
2022-09-25T10:19:53.844Z,100277.34
2022-09-25T10:22:25.973Z,100276.28
2022-09-25T10:25:02.196Z,100268.19
2022-09-25T10:27:46.214Z,100273.34
2022-09-25T10:30:21.830Z,100274.16
2022-09-25T10:33:03.025Z,100272.31
2022-09-25T10:35:39.993Z,100273.25
2022-09-25T10:38:19.024Z,100277.63
2022-09-25T10:40:47.635Z,100266.84
2022-09-25T10:43:20.708Z,100273.72
2022-09-25T10:45:54.100Z,100277.22
2022-09-25T10:48:45.437Z,100269.22
2022-09-25T10:51:18.134Z,100278.84
2022-09-25T10:53:53.722Z,100282.31
2022-09-25T10:56:27.676Z,100276.13
2022-09-25T10:58:58.225Z,100276.31
2022-09-25T11:01:37.904Z,100274.66
2022-09-25T11:04:16.508Z,100269.53
2022-09-25T11:06:52.381Z,100272.38
2022-09-25T11:09:25.040Z,100283.03
2022-09-25T11:12:03.916Z,100281.22
2022-09-25T11:14:35.723Z,100278.47
2022-09-25T11:17:06.146Z,100280.19
2022-09-25T11:19:35.968Z,100273.94
2022-09-25T11:22:26.220Z,100268.63
2022-09-25T11:25:18.456Z,100271.22
2022-09-25T11:28:09.976Z,100273.06
2022-09-25T11:30:54.773Z,100263.34
2022-09-25T11:33:37.974Z,100269.59
2022-09-25T11:36:12.266Z,100265.13
2022-09-25T11:39:09.190Z,100259.81
2022-09-25T11:41:42.209Z,100257.13
2022-09-25T11:44:32.143Z,100254.28
2022-09-25T11:47:11.365Z,100248.75
2022-09-25T11:49:41.935Z,100256.75
2022-09-25T11:52:40.076Z,100250.59
2022-09-25T11:55:57.341Z,100256.75
2022-09-25T11:59:04.113Z,100250.25
2022-09-25T12:01:41.566Z,100244.84
2022-09-25T12:04:41.767Z,100250.00
2022-09-25T12:07:35.846Z,100252.69
2022-09-25T12:10:42.976Z,100245.00
2022-09-25T12:13:24.814Z,100247.00
2022-09-25T12:16:09.315Z,100243.47
2022-09-25T12:18:48.101Z,100246.97
2022-09-25T12:21:21.715Z,100241.59
2022-09-25T12:23:51.262Z,100234.28
2022-09-25T12:26:29.873Z,100235.91
2022-09-25T12:29:14.072Z,100236.63
2022-09-25T12:32:04.464Z,100240.06
2022-09-25T12:34:50.755Z,100235.72
2022-09-25T12:37:38.579Z,100231.44
2022-09-25T12:40:21.383Z,100235.91
2022-09-25T12:43:09.015Z,100241.94
2022-09-25T12:45:38.241Z,100235.28
2022-09-25T12:48:15.570Z,100236.63
2022-09-25T12:51:02.760Z,100230.88
2022-09-25T12:53:38.809Z,100223.28
2022-09-25T12:56:13.576Z,100218.84
2022-09-25T12:59:05.339Z,100224.44
2022-09-25T13:01:45.383Z,100209.56
2022-09-25T13:04:35.181Z,100218.41
2022-09-25T13:07:11.896Z,100219.16
2022-09-25T13:09:45.015Z,100217.22
2022-09-25T13:12:23.421Z,100217.53
2022-09-25T13:14:56.095Z,100213.31
2022-09-25T13:17:23.692Z,100216.22
2022-09-25T13:19:50.237Z,100218.22
2022-09-25T13:22:25.318Z,100210.03
2022-09-25T13:24:58.127Z,100210.75
2022-09-25T13:27:25.838Z,100211.53
2022-09-25T13:29:57.077Z,100209.88
2022-09-25T13:32:28.957Z,100209.22
2022-09-25T13:35:00.073Z,100211.16
2022-09-25T13:37:33.228Z,100208.50
2022-09-25T13:40:20.787Z,100202.00
2022-09-25T13:42:47.751Z,100198.91
2022-09-25T13:45:34.697Z,100211.34
2022-09-25T13:48:10.217Z,100200.78
2022-09-25T13:50:47.004Z,100207.00
2022-09-25T13:53:22.632Z,100202.59
2022-09-25T13:55:55.109Z,100204.31
2022-09-25T13:58:31.786Z,100197.97
2022-09-25T14:01:00.097Z,100193.56
2022-09-25T14:03:49.574Z,100200.03
2022-09-25T14:06:26.036Z,100194.06
2022-09-25T14:08:55.909Z,100189.59
2022-09-25T14:11:29.094Z,100189.66
2022-09-25T14:13:56.722Z,100196.69
2022-09-25T14:16:30.957Z,100187.59
2022-09-25T14:18:59.058Z,100183.66
2022-09-25T14:21:27.547Z,100187.03
2022-09-25T14:23:56.918Z,100173.63
2022-09-25T14:26:28.301Z,100170.13
2022-09-25T14:28:57.460Z,100168.69
2022-09-25T14:31:30.259Z,100163.84
2022-09-25T14:34:25.886Z,100160.47
2022-09-25T14:37:01.756Z,100160.44
2022-09-25T14:39:32.644Z,100159.31
2022-09-25T14:42:34.717Z,100163.47
2022-09-25T14:45:24.112Z,100163.28
2022-09-25T14:47:53.221Z,100156.47
2022-09-25T14:50:24.298Z,100152.28
2022-09-25T14:53:02.568Z,100146.34
2022-09-25T14:55:39.710Z,100143.88
2022-09-25T14:58:13.555Z,100146.59
2022-09-25T15:00:52.809Z,100144.91
2022-09-25T15:03:25.089Z,100137.84
2022-09-25T15:05:51.883Z,100141.34
2022-09-25T15:08:35.670Z,100140.41
2022-09-25T15:11:15.007Z,100137.66
2022-09-25T15:13:42.262Z,100131.41
2022-09-25T15:16:35.522Z,100134.06
2022-09-25T15:19:08.350Z,100128.59
2022-09-25T15:21:37.118Z,100131.88
2022-09-25T15:24:10.759Z,100129.97
2022-09-25T15:26:45.364Z,100125.41
2022-09-25T15:29:18.188Z,100126.34
2022-09-25T15:31:52.320Z,100125.56
2022-09-25T15:34:27.616Z,100128.13
2022-09-25T15:36:54.521Z,100126.41
2022-09-25T15:39:25.293Z,100123.88
2022-09-25T15:41:52.390Z,100125.81
2022-09-25T15:44:24.413Z,100125.97
2022-09-25T15:46:52.269Z,100119.03
2022-09-25T15:49:25.419Z,100121.84
2022-09-25T15:52:27.610Z,100123.72
2022-09-25T15:54:59.620Z,100116.69
2022-09-25T15:57:29.714Z,100123.94
2022-09-25T16:00:16.553Z,100130.31
2022-09-25T16:03:45.295Z,100130.44
2022-09-25T16:06:18.383Z,100120.91
2022-09-25T16:08:44.962Z,100126.38
2022-09-25T16:11:18.076Z,100124.72
2022-09-25T16:13:49.421Z,100126.63
2022-09-25T16:16:19.180Z,100121.44
2022-09-25T16:18:46.269Z,100125.06
2022-09-25T16:21:21.003Z,100115.34
2022-09-25T16:23:59.846Z,100112.75
2022-09-25T16:26:39.764Z,100111.00
2022-09-25T16:29:12.485Z,100111.91
2022-09-25T16:31:41.458Z,100119.06
2022-09-25T16:34:17.706Z,100112.88
2022-09-25T16:36:47.085Z,100113.81
2022-09-25T16:39:27.130Z,100120.91
2022-09-25T16:41:54.420Z,100120.91
2022-09-25T16:44:35.923Z,100126.25
2022-09-25T16:47:14.596Z,100120.97
2022-09-25T16:49:43.683Z,100125.47
2022-09-25T16:52:20.490Z,100123.75
2022-09-25T16:54:52.968Z,100119.38
2022-09-25T16:57:29.213Z,100123.91
2022-09-25T16:59:55.922Z,100118.66
2022-09-25T17:02:36.491Z,100129.38
2022-09-25T17:05:16.111Z,100119.72
2022-09-25T17:07:43.959Z,100120.66
2022-09-25T17:10:16.117Z,100122.47
2022-09-25T17:12:51.240Z,100126.06
2022-09-25T17:15:27.484Z,100122.59
2022-09-25T17:17:55.300Z,100115.56
2022-09-25T17:20:26.530Z,100124.47
2022-09-25T17:22:54.374Z,100118.31
2022-09-25T17:25:43.041Z,100114.81
2022-09-25T17:28:10.940Z,100117.53
2022-09-25T17:30:38.877Z,100115.78
2022-09-25T17:33:06.999Z,100110.50
2022-09-25T17:35:41.655Z,100114.06
2022-09-25T17:38:10.495Z,100115.84
2022-09-25T17:40:37.270Z,100117.63
2022-09-25T17:43:03.887Z,100119.38
2022-09-25T17:45:43.182Z,100126.44
2022-09-25T17:48:09.726Z,100123.75
2022-09-25T17:50:36.241Z,100119.31
2022-09-25T17:53:15.472Z,100129.00
2022-09-25T17:55:42.120Z,100121.03
2022-09-25T17:58:08.760Z,100117.44
2022-09-25T18:00:35.257Z,100118.31
2022-09-25T18:03:01.894Z,100113.91
2022-09-25T18:05:29.627Z,100119.22
2022-09-25T18:07:56.276Z,100121.06
2022-09-25T18:10:23.717Z,100114.06
2022-09-25T18:12:50.256Z,100114.09
2022-09-25T18:15:16.883Z,100111.53
2022-09-25T18:17:43.500Z,100117.78
2022-09-25T18:20:32.040Z,100119.56
2022-09-25T18:22:58.759Z,100116.09
2022-09-25T18:25:25.638Z,100117.88
2022-09-25T18:27:52.420Z,100108.16
2022-09-25T18:30:23.400Z,100111.69
2022-09-25T18:32:51.203Z,100115.22
2022-09-25T18:35:19.795Z,100104.56
2022-09-25T18:37:48.753Z,100113.44
2022-09-25T18:40:18.784Z,100107.22
2022-09-25T18:42:46.001Z,100099.25
2022-09-25T18:45:13.707Z,100105.44
2022-09-25T18:47:41.453Z,100107.19
2022-09-25T18:50:10.118Z,100104.53
2022-09-25T18:52:38.253Z,100105.41
2022-09-25T18:55:06.298Z,100109.84
2022-09-25T18:57:36.281Z,100114.25
2022-09-25T19:00:06.425Z,100117.78
2022-09-25T19:02:35.013Z,100113.38
2022-09-25T19:05:01.634Z,100123.13
2022-09-25T19:07:29.387Z,100115.16
2022-09-25T19:09:58.462Z,100107.22
2022-09-25T19:12:25.568Z,100113.44
2022-09-25T19:14:52.267Z,100104.63
2022-09-25T19:17:19.933Z,100099.34
2022-09-25T19:19:46.430Z,100102.91
2022-09-25T19:22:20.791Z,100101.22
2022-09-25T19:24:48.781Z,100099.44
2022-09-25T19:27:16.849Z,100099.47
2022-09-25T19:29:47.177Z,100095.09
2022-09-25T19:32:16.662Z,100101.31
2022-09-25T19:34:43.410Z,100099.53
2022-09-25T19:37:10.714Z,100103.94
2022-09-25T19:39:55.994Z,100103.09
2022-09-25T19:42:23.920Z,100108.38
2022-09-25T19:44:50.788Z,100099.56
2022-09-25T19:47:17.422Z,100103.97
2022-09-25T19:49:44.026Z,100104.84
2022-09-25T19:52:10.923Z,100102.22
2022-09-25T19:54:38.264Z,100103.09
2022-09-25T19:57:07.948Z,100096.03
2022-09-25T19:59:35.242Z,100100.44
2022-09-25T20:02:02.318Z,100092.44
2022-09-25T20:04:28.974Z,100079.22
2022-09-25T20:06:58.510Z,100083.59
2022-09-25T20:09:26.205Z,100081.81
2022-09-25T20:11:53.001Z,100081.84
2022-09-25T20:14:25.238Z,100081.84
2022-09-25T20:16:53.900Z,100080.06
2022-09-25T20:19:20.994Z,100082.69
2022-09-25T20:21:48.308Z,100086.22
2022-09-25T20:24:14.829Z,100079.16
2022-09-25T20:26:41.675Z,100070.31
2022-09-25T20:29:12.127Z,100072.06
2022-09-25T20:31:40.846Z,100063.22
2022-09-25T20:34:08.654Z,100058.81
2022-09-25T20:36:37.747Z,100061.44
2022-09-25T20:39:05.056Z,100059.69
2022-09-25T20:41:33.148Z,100061.41
2022-09-25T20:43:59.954Z,100057.88
2022-09-25T20:46:27.436Z,100063.16
2022-09-25T20:48:57.416Z,100059.63
2022-09-25T20:51:29.449Z,100047.25
2022-09-25T20:54:01.172Z,100055.19
2022-09-25T20:56:29.348Z,100048.13
2022-09-25T20:58:57.107Z,100061.34
2022-09-25T21:01:27.149Z,100055.16
2022-09-25T21:03:54.672Z,100054.25
2022-09-25T21:06:24.013Z,100056.88
2022-09-25T21:08:56.234Z,100055.13
2022-09-25T21:11:24.004Z,100047.16
2022-09-25T21:13:52.754Z,100054.19
2022-09-25T21:16:21.180Z,100043.59
2022-09-25T21:18:53.287Z,100038.31
2022-09-25T21:21:19.946Z,100039.16
2022-09-25T21:23:52.176Z,100041.81
2022-09-25T21:26:19.005Z,100045.31
2022-09-25T21:28:48.121Z,100039.13
2022-09-25T21:31:21.914Z,100034.69
2022-09-25T21:33:54.397Z,100030.28
2022-09-25T21:36:21.760Z,100036.44
2022-09-25T21:38:49.389Z,100035.53
2022-09-25T21:41:20.876Z,100032.88
2022-09-25T21:43:47.769Z,100035.53
2022-09-25T21:46:17.993Z,100032.84
2022-09-25T21:48:56.539Z,100024.94
2022-09-25T21:51:26.959Z,100023.22
2022-09-25T21:53:56.581Z,100023.25
2022-09-25T21:56:25.636Z,100013.56
2022-09-25T21:58:54.019Z,100015.31
2022-09-25T22:01:26.920Z,100016.19
2022-09-25T22:03:56.753Z,100012.63
2022-09-25T22:06:26.989Z,100016.13
2022-09-25T22:08:55.980Z,100013.47
2022-09-25T22:11:23.383Z,100012.53
2022-09-25T22:13:51.097Z,100003.69
2022-09-25T22:16:38.373Z,100004.56
2022-09-25T22:19:09.841Z,100000.13
2022-09-25T22:21:37.493Z,100002.72
2022-09-25T22:24:04.605Z,100000.97
2022-09-25T22:26:33.630Z,99997.41
2022-09-25T22:29:00.169Z,99993.00
2022-09-25T22:31:29.194Z,99996.47
2022-09-25T22:33:58.764Z,100000.88
2022-09-25T22:36:27.248Z,99993.81
2022-09-25T22:38:54.695Z,99991.13
2022-09-25T22:41:21.185Z,99997.31
2022-09-25T22:43:50.866Z,99991.13
2022-09-25T22:46:18.212Z,100001.63
2022-09-25T22:48:44.761Z,99999.00
2022-09-25T22:51:14.058Z,99984.91
2022-09-25T22:53:40.734Z,99989.28
2022-09-25T22:56:16.643Z,99983.09
2022-09-25T22:58:47.258Z,99984.81
2022-09-25T23:01:37.059Z,99986.56
2022-09-25T23:04:10.820Z,99989.19
2022-09-25T23:06:37.605Z,99997.13
2022-09-25T23:09:08.134Z,99995.38
2022-09-25T23:11:34.772Z,99986.53
2022-09-25T23:14:11.142Z,99983.91
2022-09-25T23:16:38.534Z,99978.66
2022-09-25T23:19:05.216Z,99979.53
2022-09-25T23:21:32.042Z,99976.03
2022-09-25T23:24:04.969Z,99978.69
2022-09-25T23:26:32.161Z,99972.50
2022-09-25T23:28:59.919Z,99962.78
2022-09-25T23:31:26.670Z,99965.38
2022-09-25T23:33:53.242Z,99959.19
2022-09-25T23:36:21.945Z,99957.44
2022-09-25T23:38:50.361Z,99955.66
2022-09-25T23:41:25.046Z,99945.97
2022-09-25T23:43:53.159Z,99943.28
2022-09-25T23:46:21.808Z,99932.72
2022-09-25T23:48:48.670Z,99937.97
2022-09-25T23:51:16.656Z,99932.66
2022-09-25T23:53:44.289Z,99935.28
2022-09-25T23:56:16.318Z,99941.41
2022-09-25T23:58:43.412Z,99942.28
